F/V Roger Christian3 — FUFL — position and weather

sailwx.info

Track history (hours):
 
Tides and Currents Weather Stations Pressure Air Temp Water Temp Dewpoint Dewpoint Depression Visibility Wind Speed Wind Dir Waves Ship Positions

F/V Roger Christian3

Last reported at 2014-Oct-01 19:20 UTC. Time now 2014-Oct-01 20:28 UTC.
Position N 43°24' E 003°42'.

Length 24 m.

Type: Fishing. MMSI: 228173800.

Date/timePositionNaut miles runAvg speedWind from/ knotsBaromVisibWave heightAir tempDewpointWater temp
2014-Oct-01 19:20N 43°24' E 003°42'0 0.0
2014-Oct-01 14:11N 43°24' E 003°42'2 3.9
2014-Oct-01 13:33N 43°22' E 003°44'8 6.8
2014-Oct-01 12:25N 43°18' E 003°54'5 4.4
2014-Oct-01 11:23N 43°18' E 003°60'4 4.5
2014-Oct-01 10:31N 43°17' E 004°05'3 2.5
2014-Oct-01 09:30N 43°16' E 004°08'4 4.4
2014-Oct-01 08:34N 43°14' E 004°13'5 4.4
2014-Oct-01 07:19N 43°10' E 004°18'3 3.3
2014-Oct-01 06:33N 43°08' E 004°19'4 3.6
2014-Oct-01 05:33N 43°07' E 004°14'4 4.4
2014-Oct-01 04:33N 43°08' E 004°08'4 4.3
2014-Oct-01 03:33N 43°10' E 004°03'5 4.7
2014-Oct-01 02:33N 43°13' E 003°58'1010.2
2014-Oct-01 01:33N 43°20' E 003°48'6 5.4
2014-Oct-01 00:26N 43°24' E 003°42'0 0.0
2014-Sep-30 18:33N 43°24' E 003°42'0 0.0
2014-Sep-30 17:33N 43°24' E 003°42'0 0.1
2014-Sep-30 16:33N 43°24' E 003°42'3 1.3
2014-Sep-30 14:14N 43°21' E 003°44'6 8.1
2014-Sep-30 13:33N 43°16' E 003°48'13 4.1
2014-Sep-30 10:16N 43°04' E 003°55'3 3.7
2014-Sep-30 09:25N 43°02' E 003°58'5 4.3
2014-Sep-30 08:20N 43°00' E 004°04'6 3.1
2014-Sep-30 06:31N 43°01' E 004°12'5 3.9
2014-Sep-30 05:21N 43°01' E 004°06'29 2.6
2014-Sep-29 18:26N 43°24' E 003°42'0 0.0
2014-Sep-29 17:13N 43°24' E 003°42'0 0.1
2014-Sep-29 16:18N 43°24' E 003°42'0 0.0
2014-Sep-29 15:33N 43°24' E 003°42'0 0.0
2014-Sep-29 14:06N 43°24' E 003°42'7 9.2
2014-Sep-29 13:20N 43°19' E 003°49'2 2.9
2014-Sep-29 12:33N 43°19' E 003°52'9 3.8
2014-Sep-29 10:13N 43°17' E 004°04'8 4.3
2014-Sep-29 08:23N 43°13' E 004°13'5 4.4
2014-Sep-29 07:18N 43°10' E 004°18'1 1.1
2014-Sep-29 06:33N 43°09' E 004°17'30 2.1
2014-Sep-28 16:20N 43°24' E 003°42'0 0.0
2014-Sep-28 15:32N 43°24' E 003°42'0 0.0
2014-Sep-28 13:09N 43°24' E 003°42'0 0.0
2014-Sep-28 10:33N 43°24' E 003°42'0 0.0
2014-Sep-26 20:16N 43°24' E 003°42'0 0.0
2014-Sep-26 19:17N 43°24' E 003°42'0 0.0
2014-Sep-26 18:09N 43°24' E 003°42'0 0.0
2014-Sep-26 17:31N 43°24' E 003°42'0 0.0
2014-Sep-26 16:33N 43°24' E 003°42'0 0.2
2014-Sep-26 15:33N 43°24' E 003°42'0 0.2
2014-Sep-26 14:26N 43°24' E 003°42'0 0.1
2014-Sep-26 13:28N 43°24' E 003°42'9 6.9
2014-Sep-26 12:11N 43°17' E 003°50'4 4.4
2014-Sep-26 11:23N 43°18' E 003°55'4 4.4
2014-Sep-26 10:33N 43°18' E 003°60'3 3.0
2014-Sep-26 09:33N 43°17' E 004°04'5 4.4
2014-Sep-26 08:31N 43°15' E 004°09'8 4.0
2014-Sep-26 06:26N 43°13' E 004°20'4 3.6
2014-Sep-26 05:20N 43°16' E 004°16'26 1.8
2014-Sep-25 14:27N 43°24' E 003°42'9 4.4
2014-Sep-25 12:25N 43°18' E 003°51'4 4.5
2014-Sep-25 11:33N 43°19' E 003°57'5 4.5
2014-Sep-25 10:22N 43°18' E 004°04'2 1.9
2014-Sep-25 09:33N 43°17' E 004°06'12 3.5
2014-Sep-25 06:12N 43°13' E 004°21'30 2.2
2014-Sep-24 16:30N 43°24' E 003°42'0 0.1
2014-Sep-24 15:29N 43°24' E 003°42'0 0.0
2014-Sep-24 14:33N 43°24' E 003°42'8 7.8
2014-Sep-24 13:33N 43°18' E 003°49'5 4.0
2014-Sep-24 12:24N 43°18' E 003°56'4 4.6
2014-Sep-24 11:32N 43°18' E 004°01'5 4.5
2014-Sep-24 10:29N 43°16' E 004°07'3 3.2
2014-Sep-24 09:33N 43°14' E 004°10'4 4.2
2014-Sep-24 08:32N 43°13' E 004°16'6 3.0
2014-Sep-24 06:31N 43°08' E 004°21'3 3.4
2014-Sep-24 05:33N 43°09' E 004°17'4 4.5
2014-Sep-24 04:33N 43°11' E 004°11'5 4.5
2014-Sep-24 03:24N 43°14' E 004°05'4 4.3
2014-Sep-24 02:27N 43°16' E 004°00'7 8.0
2014-Sep-24 01:33N 43°19' E 003°52'9 1.1
2014-Sep-23 18:05N 43°24' E 003°42'0 0.0
2014-Sep-23 15:21N 43°24' E 003°42'0 0.3
2014-Sep-23 14:25N 43°24' E 003°42'4 4.1
2014-Sep-23 13:33N 43°22' E 003°46'4 4.3
2014-Sep-23 12:31N 43°20' E 003°52'10 4.3
2014-Sep-23 10:17N 43°18' E 004°05'7 4.1
2014-Sep-23 08:28N 43°16' E 004°15'4 4.3
2014-Sep-23 07:33N 43°15' E 004°20'3 2.7
2014-Sep-23 06:31N 43°14' E 004°23'3 3.3
2014-Sep-23 05:32N 43°15' E 004°19'28 2.0
2014-Sep-22 15:07N 43°24' E 003°42'10 3.4
2014-Sep-22 12:13N 43°21' E 003°55'5 5.2
2014-Sep-22 11:15N 43°20' E 004°02'8 3.8
2014-Sep-22 09:08N 43°17' E 004°12'3 4.4
2014-Sep-22 08:33N 43°16' E 004°15'5 4.4
2014-Sep-22 07:32N 43°14' E 004°20'4 3.2
2014-Sep-22 06:25N 43°12' E 004°25'3 4.0
2014-Sep-22 05:33N 43°14' E 004°21'4 4.4
2014-Sep-22 04:33N 43°16' E 004°15'  
Track history (hours):
 
Tides and Currents Weather Stations Pressure Air Temp Water Temp Dewpoint Dewpoint Depression Visibility Wind Speed Wind Dir Waves Ship Positions

F/V Roger Christian3

Last reported at 2014-Oct-01 19:20 UTC. Time now 2014-Oct-01 20:28 UTC.
Position N 43°24' E 003°42'.

Length 24 m.

Type: Fishing. MMSI: 228173800.

Date/timePositionNaut miles runAvg speedWind from/ knotsBaromVisibWave heightAir tempDewpointWater temp
2014-Oct-01 19:20N 43°24' E 003°42'0 0.0
2014-Oct-01 14:11N 43°24' E 003°42'2 3.9
2014-Oct-01 13:33N 43°22' E 003°44'8 6.8
2014-Oct-01 12:25N 43°18' E 003°54'5 4.4
2014-Oct-01 11:23N 43°18' E 003°60'4 4.5
2014-Oct-01 10:31N 43°17' E 004°05'3 2.5
2014-Oct-01 09:30N 43°16' E 004°08'4 4.4
2014-Oct-01 08:34N 43°14' E 004°13'5 4.4
2014-Oct-01 07:19N 43°10' E 004°18'3 3.3
2014-Oct-01 06:33N 43°08' E 004°19'4 3.6
2014-Oct-01 05:33N 43°07' E 004°14'4 4.4
2014-Oct-01 04:33N 43°08' E 004°08'4 4.3
2014-Oct-01 03:33N 43°10' E 004°03'5 4.7
2014-Oct-01 02:33N 43°13' E 003°58'1010.2
2014-Oct-01 01:33N 43°20' E 003°48'6 5.4
2014-Oct-01 00:26N 43°24' E 003°42'0 0.0
2014-Sep-30 18:33N 43°24' E 003°42'0 0.0
2014-Sep-30 17:33N 43°24' E 003°42'0 0.1
2014-Sep-30 16:33N 43°24' E 003°42'3 1.3
2014-Sep-30 14:14N 43°21' E 003°44'6 8.1
2014-Sep-30 13:33N 43°16' E 003°48'13 4.1
2014-Sep-30 10:16N 43°04' E 003°55'3 3.7
2014-Sep-30 09:25N 43°02' E 003°58'5 4.3
2014-Sep-30 08:20N 43°00' E 004°04'6 3.1
2014-Sep-30 06:31N 43°01' E 004°12'5 3.9
2014-Sep-30 05:21N 43°01' E 004°06'29 2.6
2014-Sep-29 18:26N 43°24' E 003°42'0 0.0
2014-Sep-29 17:13N 43°24' E 003°42'0 0.1
2014-Sep-29 16:18N 43°24' E 003°42'0 0.0
2014-Sep-29 15:33N 43°24' E 003°42'0 0.0
2014-Sep-29 14:06N 43°24' E 003°42'7 9.2
2014-Sep-29 13:20N 43°19' E 003°49'2 2.9
2014-Sep-29 12:33N 43°19' E 003°52'9 3.8
2014-Sep-29 10:13N 43°17' E 004°04'8 4.3
2014-Sep-29 08:23N 43°13' E 004°13'5 4.4
2014-Sep-29 07:18N 43°10' E 004°18'1 1.1
2014-Sep-29 06:33N 43°09' E 004°17'30 2.1
2014-Sep-28 16:20N 43°24' E 003°42'0 0.0
2014-Sep-28 15:32N 43°24' E 003°42'0 0.0
2014-Sep-28 13:09N 43°24' E 003°42'0 0.0
2014-Sep-28 10:33N 43°24' E 003°42'0 0.0
2014-Sep-26 20:16N 43°24' E 003°42'0 0.0
2014-Sep-26 19:17N 43°24' E 003°42'0 0.0
2014-Sep-26 18:09N 43°24' E 003°42'0 0.0
2014-Sep-26 17:31N 43°24' E 003°42'0 0.0
2014-Sep-26 16:33N 43°24' E 003°42'0 0.2
2014-Sep-26 15:33N 43°24' E 003°42'0 0.2
2014-Sep-26 14:26N 43°24' E 003°42'0 0.1
2014-Sep-26 13:28N 43°24' E 003°42'9 6.9
2014-Sep-26 12:11N 43°17' E 003°50'4 4.4
2014-Sep-26 11:23N 43°18' E 003°55'4 4.4
2014-Sep-26 10:33N 43°18' E 003°60'3 3.0
2014-Sep-26 09:33N 43°17' E 004°04'5 4.4
2014-Sep-26 08:31N 43°15' E 004°09'8 4.0
2014-Sep-26 06:26N 43°13' E 004°20'4 3.6
2014-Sep-26 05:20N 43°16' E 004°16'26 1.8
2014-Sep-25 14:27N 43°24' E 003°42'9 4.4
2014-Sep-25 12:25N 43°18' E 003°51'4 4.5
2014-Sep-25 11:33N 43°19' E 003°57'5 4.5
2014-Sep-25 10:22N 43°18' E 004°04'2 1.9
2014-Sep-25 09:33N 43°17' E 004°06'12 3.5
2014-Sep-25 06:12N 43°13' E 004°21'30 2.2
2014-Sep-24 16:30N 43°24' E 003°42'0 0.1
2014-Sep-24 15:29N 43°24' E 003°42'0 0.0
2014-Sep-24 14:33N 43°24' E 003°42'8 7.8
2014-Sep-24 13:33N 43°18' E 003°49'5 4.0
2014-Sep-24 12:24N 43°18' E 003°56'4 4.6
2014-Sep-24 11:32N 43°18' E 004°01'5 4.5
2014-Sep-24 10:29N 43°16' E 004°07'3 3.2
2014-Sep-24 09:33N 43°14' E 004°10'4 4.2
2014-Sep-24 08:32N 43°13' E 004°16'6 3.0
2014-Sep-24 06:31N 43°08' E 004°21'3 3.4
2014-Sep-24 05:33N 43°09' E 004°17'4 4.5
2014-Sep-24 04:33N 43°11' E 004°11'5 4.5
2014-Sep-24 03:24N 43°14' E 004°05'4 4.3
2014-Sep-24 02:27N 43°16' E 004°00'7 8.0
2014-Sep-24 01:33N 43°19' E 003°52'9 1.1
2014-Sep-23 18:05N 43°24' E 003°42'0 0.0
2014-Sep-23 15:21N 43°24' E 003°42'0 0.3
2014-Sep-23 14:25N 43°24' E 003°42'4 4.1
2014-Sep-23 13:33N 43°22' E 003°46'4 4.3
2014-Sep-23 12:31N 43°20' E 003°52'10 4.3
2014-Sep-23 10:17N 43°18' E 004°05'7 4.1
2014-Sep-23 08:28N 43°16' E 004°15'4 4.3
2014-Sep-23 07:33N 43°15' E 004°20'3 2.7
2014-Sep-23 06:31N 43°14' E 004°23'3 3.3
2014-Sep-23 05:32N 43°15' E 004°19'28 2.0
2014-Sep-22 15:07N 43°24' E 003°42'10 3.4
2014-Sep-22 12:13N 43°21' E 003°55'5 5.2
2014-Sep-22 11:15N 43°20' E 004°02'8 3.8
2014-Sep-22 09:08N 43°17' E 004°12'3 4.4
2014-Sep-22 08:33N 43°16' E 004°15'5 4.4
2014-Sep-22 07:32N 43°14' E 004°20'4 3.2
2014-Sep-22 06:25N 43°12' E 004°25'3 4.0
2014-Sep-22 05:33N 43°14' E 004°21'4 4.4
2014-Sep-22 04:33N 43°16' E 004°15'  

Dump ship's entire track history